Time;durP1;ratioP1;P1;durP2;ratioP2;P2;SDS_P1;SDS_P2;PMS_P1;PMS_P2;Temp;Humidity;BMP_temperature;BMP_pressure;BME280_temperature;BME280_humidity;BME280_pressure;Samples;Min_cycle;Max_cycle;Signal;HPM_P1;HPM_P2
2022/04/25 00:01:53;;;;;;;13.85;9.30;;;;;;;8.73;78.62;98770.06;1639410;84;20893;-66
2022/04/25 00:04:23;;;;;;;14.95;9.55;;;;;;;8.68;78.62;98768.05;1649637;85;20909;-66
2022/04/25 00:07:00;;;;;;;14.07;9.88;;;;;;;8.63;78.64;98766.87;1661188;85;21013;-66
2022/04/25 00:09:37;;;;;;;13.48;9.35;;;;;;;8.63;78.51;98769.05;1647951;86;20964;-66
2022/04/25 00:12:11;;;;;;;14.28;10.20;;;;;;;8.64;78.62;98769.28;1621286;86;20983;-66
2022/04/25 00:14:44;;;;;;;15.60;10.58;;;;;;;8.59;78.67;98757.94;1646316;85;20996;-66
2022/04/25 00:17:17;;;;;;;14.68;10.38;;;;;;;8.56;78.85;98757.21;1644436;86;21594;-66
2022/04/25 00:19:53;;;;;;;15.63;10.38;;;;;;;8.51;78.98;98754.63;1643092;85;21059;-65
2022/04/25 00:22:25;;;;;;;15.05;10.23;;;;;;;8.49;79.16;98745.94;1635897;86;20937;-65
2022/04/25 00:24:56;;;;;;;14.03;9.98;;;;;;;8.48;79.21;98747.06;1637054;86;20968;-65
2022/04/25 00:27:28;;;;;;;17.50;10.13;;;;;;;8.48;79.35;98749.00;1636667;86;21511;-63
2022/04/25 00:30:02;;;;;;;16.37;9.95;;;;;;;8.49;79.30;98743.20;1645801;85;20936;-64
2022/04/25 00:32:31;;;;;;;16.73;10.35;;;;;;;8.53;79.13;98742.00;1651558;85;21020;-65
2022/04/25 00:35:09;;;;;;;12.95;9.35;;;;;;;8.56;78.90;98750.37;1643861;84;21107;-65
2022/04/25 00:37:43;;;;;;;12.65;9.48;;;;;;;8.62;78.66;98752.38;1649189;85;20927;-64
2022/04/25 00:40:12;;;;;;;14.65;10.25;;;;;;;8.66;78.57;98756.65;1633562;86;21003;-65
2022/04/25 00:42:43;;;;;;;14.87;9.45;;;;;;;8.66;78.44;98755.28;1638402;85;21566;-65
2022/04/25 00:45:16;;;;;;;14.33;9.73;;;;;;;8.67;78.32;98750.02;1661542;85;21000;-65
2022/04/25 00:47:49;;;;;;;14.35;10.40;;;;;;;8.66;78.34;98747.88;1641965;85;21476;-65
2022/04/25 00:50:18;;;;;;;13.25;9.38;;;;;;;8.65;78.33;98745.47;1641425;86;21452;-65
2022/04/25 00:52:48;;;;;;;14.58;10.20;;;;;;;8.63;78.45;98745.79;1644353;86;21095;-65
2022/04/25 00:55:21;;;;;;;14.40;9.45;;;;;;;8.63;78.46;98742.25;1620168;86;21484;-65
2022/04/25 00:57:56;;;;;;;14.40;9.98;;;;;;;8.64;78.36;98734.28;1629245;85;20948;-65
2022/04/25 01:00:36;;;;;;;13.62;9.55;;;;;;;8.65;78.23;98727.12;1639029;86;20995;-66
2022/04/25 01:03:02;;;;;;;13.50;9.18;;;;;;;8.66;78.47;98729.30;1608229;87;20924;-66
2022/04/25 01:05:35;;;;;;;14.23;10.08;;;;;;;8.66;78.37;98718.34;1631432;87;21008;-65
2022/04/25 01:08:13;;;;;;;15.03;10.13;;;;;;;8.65;78.30;98717.55;1629020;86;21155;-65
2022/04/25 01:10:46;;;;;;;13.88;8.75;;;;;;;8.65;78.45;98712.63;1631001;86;21188;-67
2022/04/25 01:13:18;;;;;;;12.78;9.13;;;;;;;8.65;78.31;98707.16;1632905;87;21004;-66
2022/04/25 01:15:48;;;;;;;14.65;9.68;;;;;;;8.66;78.28;98712.31;1634590;87;21535;-66
2022/04/25 01:18:21;;;;;;;11.18;8.15;;;;;;;8.68;78.23;98705.12;1646713;86;21051;-66
2022/04/25 01:20:55;;;;;;;13.90;9.25;;;;;;;8.70;78.03;98711.88;1661704;86;21463;-66
2022/04/25 01:29:04;;;;;;;11.95;7.50;;;;;;;8.76;77.95;98711.14;1659370;85;20933;-66
2022/04/25 01:31:37;;;;;;;11.88;8.95;;;;;;;8.75;77.74;98707.61;1660325;85;21487;-65
2022/04/25 01:34:09;;;;;;;13.10;7.87;;;;;;;8.74;77.79;98700.52;1661555;86;20912;-65
2022/04/25 01:36:37;;;;;;;9.88;7.47;;;;;;;8.73;77.74;98704.39;1672782;85;21902;-65
2022/04/25 01:39:12;;;;;;;11.78;8.65;;;;;;;8.71;77.60;98699.00;1659171;86;21046;-65
2022/04/25 01:41:44;;;;;;;10.32;7.58;;;;;;;8.68;77.65;98698.28;1662267;84;20974;-66
2022/04/25 01:44:14;;;;;;;10.58;7.65;;;;;;;8.63;77.79;98697.10;1631634;85;20941;-66
2022/04/25 01:46:47;;;;;;;12.50;8.35;;;;;;;8.57;77.84;98698.64;1660597;85;21059;-65
2022/04/25 01:49:18;;;;;;;10.68;7.65;;;;;;;8.53;78.19;98697.67;1648361;85;21934;-65
2022/04/25 01:51:49;;;;;;;11.57;7.72;;;;;;;8.47;78.57;98694.05;1660116;86;20939;-66
2022/04/25 01:54:23;;;;;;;12.53;8.78;;;;;;;8.43;78.71;98695.82;1631909;85;20968;-65
2022/04/25 01:56:53;;;;;;;13.32;8.78;;;;;;;8.39;78.89;98689.39;1639143;86;21032;-66
2022/04/25 01:59:22;;;;;;;11.20;8.13;;;;;;;8.34;79.25;98686.25;1633629;87;20940;-65
2022/04/25 02:01:55;;;;;;;14.25;8.18;;;;;;;8.30;79.60;98685.25;1633127;86;21148;-65
2022/04/25 02:04:31;;;;;;;12.93;8.83;;;;;;;8.28;79.82;98675.20;1594712;87;20982;-65
2022/04/25 02:07:11;;;;;;;12.40;9.23;;;;;;;8.26;80.08;98670.61;1611724;87;20983;-66
2022/04/25 02:09:38;;;;;;;11.75;8.43;;;;;;;8.24;80.50;98670.13;1587562;88;21015;-66
2022/04/25 02:12:09;;;;;;;14.83;9.60;;;;;;;8.24;80.61;98671.50;1615036;87;21008;-66
2022/04/25 02:14:46;;;;;;;10.68;8.20;;;;;;;8.23;80.67;98673.42;1622741;86;20911;-66
2022/04/25 02:17:16;;;;;;;11.68;8.00;;;;;;;8.23;80.59;98672.06;1597837;89;21521;-66
2022/04/25 02:19:46;;;;;;;18.25;9.55;;;;;;;8.26;80.69;98673.34;1636929;86;20916;-66
2022/04/25 02:22:22;;;;;;;13.58;9.40;;;;;;;8.29;80.33;98686.38;1598119;89;21020;-66
2022/04/25 02:24:51;;;;;;;10.45;7.85;;;;;;;8.33;80.27;98691.48;1624223;86;21401;-66
2022/04/25 02:27:24;;;;;;;13.68;8.85;;;;;;;8.35;80.20;98693.33;1631592;86;21284;-66
2022/04/25 02:29:58;;;;;;;11.80;8.45;;;;;;;8.37;80.37;98697.11;1645249;86;21850;-67
2022/04/25 02:32:30;;;;;;;12.35;8.45;;;;;;;8.37;80.21;98693.81;1630551;86;21012;-66
2022/04/25 02:35:01;;;;;;;13.25;8.90;;;;;;;8.38;80.26;98693.25;1640835;86;20956;-66
2022/04/25 02:37:30;;;;;;;13.05;8.25;;;;;;;8.39;80.48;98688.02;1633695;86;20954;-66
2022/04/25 02:39:59;;;;;;;10.80;8.08;;;;;;;8.39;80.83;98681.19;1655458;85;21266;-65
2022/04/25 02:42:30;;;;;;;12.18;8.90;;;;;;;8.37;80.89;98677.41;1575712;89;21519;-65
2022/04/25 02:45:01;;;;;;;11.05;8.43;;;;;;;8.38;81.18;98668.63;1593010;86;21012;-65
2022/04/25 02:47:36;;;;;;;10.95;8.40;;;;;;;8.37;80.99;98656.09;1638224;86;20896;-65
2022/04/25 02:50:12;;;;;;;13.48;7.75;;;;;;;8.38;80.61;98646.19;1606966;87;21550;-65
2022/04/25 02:52:54;;;;;;;12.18;8.20;;;;;;;8.42;80.17;98638.95;1602249;88;21194;-65
2022/04/25 02:55:26;;;;;;;10.98;8.33;;;;;;;8.44;80.23;98629.86;1590616;89;21562;-65
2022/04/25 02:58:00;;;;;;;11.15;7.78;;;;;;;8.44;80.17;98622.22;1621195;87;20924;-65
2022/04/25 03:00:31;;;;;;;11.68;7.78;;;;;;;8.42;79.20;98624.47;1574471;90;21066;-65
2022/04/25 03:03:05;;;;;;;10.40;7.75;;;;;;;8.44;79.05;98632.59;1585656;88;20928;-66
2022/04/25 03:05:37;;;;;;;11.90;8.20;;;;;;;8.50;78.79;98662.76;1636132;87;21180;-67
2022/04/25 03:08:10;;;;;;;10.32;7.28;;;;;;;8.53;79.01;98703.14;1636164;87;20959;-66
2022/04/25 03:10:38;;;;;;;10.28;7.40;;;;;;;8.56;78.59;98697.59;1633578;87;21104;-67
2022/04/25 03:13:13;;;;;;;10.85;7.08;;;;;;;8.63;78.84;98662.91;1621577;87;21019;-67
2022/04/25 03:15:49;;;;;;;9.95;7.12;;;;;;;8.68;78.45;98639.45;1604015;86;20950;-67
2022/04/25 03:18:22;;;;;;;8.88;6.42;;;;;;;8.75;77.97;98641.93;1612443;86;20896;-66
2022/04/25 03:20:50;;;;;;;10.13;7.12;;;;;;;8.80;77.76;98646.43;1630393;86;20940;-66
2022/04/25 03:23:23;;;;;;;8.50;6.67;;;;;;;8.84;77.47;98643.28;1651473;86;21500;-66
2022/04/25 03:25:51;;;;;;;10.55;6.33;;;;;;;8.88;76.77;98646.97;1654084;86;21572;-66
2022/04/25 03:28:22;;;;;;;8.45;6.40;;;;;;;8.94;76.45;98653.88;1616328;87;21553;-66
2022/04/25 03:30:53;;;;;;;10.00;6.15;;;;;;;9.00;76.33;98649.84;1611028;86;21900;-67
2022/04/25 03:33:24;;;;;;;10.32;7.05;;;;;;;9.01;76.31;98639.13;1622280;87;21058;-66
2022/04/25 03:35:53;;;;;;;11.20;7.03;;;;;;;9.02;76.42;98627.61;1619028;87;20997;-65
2022/04/25 03:38:24;;;;;;;8.53;6.30;;;;;;;9.02;76.76;98629.78;1638152;85;21140;-65
2022/04/25 03:40:54;;;;;;;9.15;5.90;;;;;;;8.99;77.23;98630.44;1632819;86;20962;-66
2022/04/25 03:43:26;;;;;;;8.38;6.03;;;;;;;9.00;77.36;98640.26;1642940;86;21053;-66
2022/04/25 03:45:57;;;;;;;8.15;6.05;;;;;;;9.00;77.37;98641.63;1633124;86;21001;-66
2022/04/25 03:48:28;;;;;;;12.05;6.53;;;;;;;8.99;77.81;98630.44;1628362;86;21590;-66
2022/04/25 03:51:00;;;;;;;8.48;6.25;;;;;;;8.99;78.63;98633.17;1606830;88;21140;-65
2022/04/25 03:53:33;;;;;;;7.92;6.28;;;;;;;8.98;79.10;98642.52;1602423;88;20921;-65
2022/04/25 03:58:56;;;;;;;12.43;6.78;;;;;;;9.06;79.23;98639.52;1649980;85;21015;-66
2022/04/25 04:01:26;;;;;;;8.70;6.10;;;;;;;9.12;79.32;98634.91;1593413;89;21009;-66
2022/04/25 04:04:05;;;;;;;8.60;6.50;;;;;;;9.16;78.87;98634.48;1656776;86;20916;-66
2022/04/25 04:06:36;;;;;;;9.53;6.60;;;;;;;9.23;79.10;98634.78;1639818;85;21137;-67
2022/04/25 04:09:44;;;;;;;10.90;6.65;;;;;;;9.34;78.38;98641.23;1629478;86;20937;-67
2022/04/25 04:11:47;;;;;;;10.13;6.47;;;;;;;9.43;78.15;98640.62;1652403;85;20981;-68
2022/04/25 04:14:19;;;;;;;9.83;6.40;;;;;;;9.49;77.84;98636.00;1589047;87;21051;-66
2022/04/25 04:16:48;;;;;;;12.88;6.97;;;;;;;9.57;77.01;98626.12;1646813;86;21556;-68
2022/04/25 04:19:21;;;;;;;15.55;8.65;;;;;;;9.64;76.18;98622.87;1642936;86;21416;-67
2022/04/25 04:21:48;;;;;;;7.45;5.72;;;;;;;9.70;75.89;98620.98;1642004;86;21701;-67
2022/04/25 04:24:19;;;;;;;10.78;5.85;;;;;;;9.75;75.02;98613.92;1612291;87;20948;-67
2022/04/25 04:26:47;;;;;;;10.13;6.37;;;;;;;9.81;74.83;98607.69;1606200;88;21033;-68
2022/04/25 04:29:18;;;;;;;8.23;6.35;;;;;;;9.83;74.22;98604.81;1605965;88;20984;-67
2022/04/25 04:31:50;;;;;;;9.30;6.37;;;;;;;9.87;74.36;98603.58;1640575;86;21004;-67
2022/04/25 04:34:20;;;;;;;12.95;6.85;;;;;;;9.93;74.87;98597.56;1638137;86;21087;-67
2022/04/25 04:36:51;;;;;;;;;;;;;;;9.97;74.38;98606.49;1643809;84;20945;-69
2022/04/25 04:39:20;;;;;;;8.43;6.17;;;;;;;10.01;74.45;98598.64;1642954;85;20473;-67
2022/04/25 04:41:52;;;;;;;;;;;;;;;10.04;74.51;98599.34;1634354;86;21393;-66
2022/04/25 04:44:27;;;;;;;11.15;6.35;;;;;;;10.09;73.91;98600.52;1636068;86;20623;-67
2022/04/25 04:46:57;;;;;;;11.45;6.28;;;;;;;10.13;74.30;98602.02;1630627;86;21184;-66
2022/04/25 04:49:25;;;;;;;8.80;5.87;;;;;;;10.19;74.15;98604.25;1652578;86;20998;-67
2022/04/25 04:51:56;;;;;;;13.75;6.50;;;;;;;10.27;74.27;98603.14;1640941;85;21584;-66
2022/04/25 04:54:30;;;;;;;10.35;6.95;;;;;;;10.32;73.96;98608.42;1643431;86;21062;-80
2022/04/25 04:56:58;;;;;;;11.40;6.97;;;;;;;10.36;74.71;98601.13;1645378;84;24322;-73
2022/04/25 04:59:27;;;;;;;11.50;6.90;;;;;;;10.42;73.41;98606.03;1629245;86;20999;-78
2022/04/25 05:02:00;;;;;;;9.28;6.85;;;;;;;10.44;73.56;98596.09;1647767;86;21419;-73
2022/04/25 05:04:25;;;;;;;10.70;6.78;;;;;;;10.50;74.27;98594.74;1644564;86;21072;-73
2022/04/25 05:06:56;;;;;;;10.28;6.92;;;;;;;10.57;74.42;98597.74;1647058;86;21010;-73
2022/04/25 05:09:27;;;;;;;9.05;6.42;;;;;;;10.65;74.12;98600.16;1635575;86;21008;-72
2022/04/25 05:11:57;;;;;;;13.22;6.83;;;;;;;10.70;74.68;98601.33;1611908;86;22436;-73
2022/04/25 05:14:33;;;;;;;8.38;6.28;;;;;;;10.80;74.94;98598.15;1635070;86;20988;-73
2022/04/25 05:17:04;;;;;;;7.92;5.78;;;;;;;10.89;74.33;98592.79;1640354;86;21063;-73
2022/04/25 05:19:33;;;;;;;12.35;6.33;;;;;;;10.99;74.89;98587.40;1652247;84;21620;-71
2022/04/25 05:22:06;;;;;;;12.70;6.10;;;;;;;11.09;74.73;98592.45;1638246;86;21055;-71
2022/04/25 05:24:35;;;;;;;11.05;5.90;;;;;;;11.18;73.92;98585.47;1643864;86;21162;-71
2022/04/25 05:27:07;;;;;;;9.45;6.12;;;;;;;11.28;74.14;98593.84;1631996;86;21600;-71
2022/04/25 05:29:42;;;;;;;8.03;5.97;;;;;;;11.35;74.60;98586.62;1645617;84;25412;-72
2022/04/25 05:32:10;;;;;;;9.63;6.10;;;;;;;11.45;74.78;98577.92;1642751;85;21515;-69
2022/04/25 05:34:37;;;;;;;11.22;6.70;;;;;;;11.58;75.32;98574.56;1641929;84;21063;-68
2022/04/25 05:37:10;;;;;;;12.20;6.72;;;;;;;11.73;75.82;98575.80;1644254;86;21177;-68
2022/04/25 05:39:43;;;;;;;12.35;5.80;;;;;;;11.84;75.63;98572.25;1636637;84;20920;-66
2022/04/25 05:42:12;;;;;;;12.15;5.83;;;;;;;11.99;75.71;98575.42;1640860;86;20996;-69
2022/04/25 05:44:39;;;;;;;14.80;6.45;;;;;;;12.09;75.51;98569.44;1636439;86;21015;-69
2022/04/25 05:47:09;;;;;;;14.50;10.58;;;;;;;12.24;75.49;98569.47;1634261;86;20956;-70
2022/04/25 05:52:29;;;;;;;10.78;7.80;;;;;;;12.46;75.04;98553.55;1608896;86;21091;-69
2022/04/25 05:55:03;;;;;;;10.63;7.15;;;;;;;12.59;75.08;98551.53;1627965;85;20941;-71
2022/04/25 05:57:32;;;;;;;10.75;7.67;;;;;;;12.75;75.34;98557.83;1623883;86;21059;-69
2022/04/25 06:00:04;;;;;;;11.93;8.15;;;;;;;12.93;74.84;98559.09;1649467;85;21017;-69
2022/04/25 06:02:38;;;;;;;11.48;7.85;;;;;;;13.08;74.32;98548.66;1639676;86;21206;-69
2022/04/25 06:05:10;;;;;;;12.85;7.00;;;;;;;13.24;74.22;98543.16;1641919;84;21011;-69
2022/04/25 06:07:45;;;;;;;11.43;6.12;;;;;;;13.38;73.47;98536.58;1630196;85;21038;-69
2022/04/25 06:10:16;;;;;;;10.72;5.95;;;;;;;13.47;72.86;98532.25;1620861;87;21111;-68
2022/04/25 06:12:51;;;;;;;10.38;6.42;;;;;;;13.52;73.34;98525.08;1611592;86;20967;-69
2022/04/25 06:15:27;;;;;;;9.53;6.53;;;;;;;13.64;73.39;98533.81;1618099;87;21250;-70
2022/04/25 06:17:56;;;;;;;12.70;7.15;;;;;;;13.81;73.91;98527.89;1618533;86;20948;-69
2022/04/25 06:20:30;;;;;;;13.08;6.20;;;;;;;14.02;72.72;98516.47;1631956;86;21071;-69
2022/04/25 06:23:02;;;;;;;10.88;7.97;;;;;;;14.14;72.36;98512.19;1628529;86;20986;-71
2022/04/25 06:25:34;;;;;;;12.33;7.37;;;;;;;14.27;71.88;98497.06;1585076;88;21094;-70
2022/04/25 06:28:06;;;;;;;10.20;7.50;;;;;;;14.36;71.62;98510.06;1576913;90;21172;-71
2022/04/25 06:30:40;;;;;;;12.53;7.70;;;;;;;14.42;71.92;98504.48;1626336;87;21104;-70
2022/04/25 06:33:10;;;;;;;10.90;7.62;;;;;;;14.48;71.49;98498.84;1633738;86;21023;-70
2022/04/25 06:35:38;;;;;;;9.70;6.67;;;;;;;14.56;71.57;98498.98;1645099;86;21084;-70
2022/04/25 06:38:15;;;;;;;10.98;6.55;;;;;;;14.62;71.78;98500.27;1655889;85;21068;-70
2022/04/25 06:40:42;;;;;;;12.40;6.67;;;;;;;14.67;72.01;98498.01;1637066;86;21258;-70
2022/04/25 06:43:16;;;;;;;13.98;7.25;;;;;;;14.71;71.05;98492.55;1627767;85;20979;-71
2022/04/25 06:45:54;;;;;;;10.48;6.60;;;;;;;14.71;70.96;98488.40;1635923;84;21508;-73
2022/04/25 06:48:20;;;;;;;14.10;6.80;;;;;;;14.68;71.19;98499.60;1629191;86;21024;-71
2022/04/25 06:50:48;;;;;;;11.68;7.40;;;;;;;14.69;71.51;98526.06;1629623;86;21040;-70
2022/04/25 06:53:19;;;;;;;13.05;8.00;;;;;;;14.77;71.71;98542.18;1632722;86;21141;-71
2022/04/25 06:55:53;;;;;;;10.40;5.85;;;;;;;14.88;71.51;98526.59;1638713;86;21836;-72
2022/04/25 06:58:29;;;;;;;9.80;7.37;;;;;;;14.99;71.05;98519.86;1638334;84;21073;-71
2022/04/25 07:00:58;;;;;;;13.38;7.37;;;;;;;15.06;70.70;98540.68;1611504;86;21052;-70
2022/04/25 07:03:27;;;;;;;9.25;5.92;;;;;;;15.18;70.65;98541.88;1664270;84;21022;-71
2022/04/25 07:06:01;;;;;;;10.70;5.92;;;;;;;15.31;70.39;98536.94;1647151;85;21155;-71
2022/04/25 07:08:33;;;;;;;9.55;6.72;;;;;;;15.40;69.62;98534.71;1659181;86;21015;-70
2022/04/25 07:11:02;;;;;;;12.87;6.80;;;;;;;15.44;70.18;98546.04;1646872;86;21134;-71
2022/04/25 07:13:35;;;;;;;11.73;7.33;;;;;;;15.51;70.72;98539.82;1619732;86;21067;-71
2022/04/25 07:16:09;;;;;;;12.43;7.97;;;;;;;15.63;70.88;98546.52;1633621;86;21684;-71
2022/04/25 07:18:41;;;;;;;9.80;7.00;;;;;;;15.72;70.28;98549.02;1656700;85;21094;-71
2022/04/25 07:29:39;;;;;;;13.45;6.92;;;;;;;16.03;69.33;98540.94;1634725;85;21054;-70
2022/04/25 07:32:13;;;;;;;10.15;7.67;;;;;;;16.07;69.46;98535.66;1661701;85;21997;-70
2022/04/25 07:34:49;;;;;;;12.28;7.72;;;;;;;16.12;69.55;98532.56;1657197;85;21085;-70
2022/04/25 07:37:22;;;;;;;13.88;7.50;;;;;;;16.16;69.71;98534.79;1659777;85;20983;-70
2022/04/25 07:39:56;;;;;;;12.93;7.00;;;;;;;16.22;69.46;98537.98;1624814;86;21077;-70
2022/04/25 07:42:43;;;;;;;11.08;6.25;;;;;;;16.27;69.51;98548.73;1642407;86;21589;-70
2022/04/25 07:45:01;;;;;;;10.45;7.17;;;;;;;16.25;68.35;98541.39;1598824;88;20953;-69
2022/04/25 07:47:33;;;;;;;12.88;7.00;;;;;;;16.25;69.64;98541.39;1602928;88;21551;-70
2022/04/25 07:50:10;;;;;;;9.88;6.40;;;;;;;16.40;69.31;98540.97;1631154;86;21562;-70
2022/04/25 07:52:39;;;;;;;9.23;6.12;;;;;;;16.56;68.34;98536.59;1608139;86;21127;-70
2022/04/25 07:55:09;;;;;;;9.88;6.72;;;;;;;16.67;66.72;98543.88;1572691;89;21543;-71
2022/04/25 07:57:41;;;;;;;10.68;6.58;;;;;;;16.70;67.27;98529.84;1635261;84;21225;-72
2022/04/25 08:00:12;;;;;;;13.75;7.08;;;;;;;16.87;67.36;98545.03;1563002;89;21551;-65
2022/04/25 08:02:44;;;;;;;11.70;6.12;;;;;;;17.10;65.71;98539.50;1634007;86;20979;-66
2022/04/25 08:05:11;;;;;;;9.68;6.22;;;;;;;17.26;65.27;98546.17;1630806;86;21126;-67
2022/04/25 08:07:41;;;;;;;7.40;6.17;;;;;;;17.37;64.25;98532.36;1649280;85;21035;-67
2022/04/25 08:10:09;;;;;;;9.13;6.95;;;;;;;17.47;63.93;98523.31;1658156;86;21657;-67
2022/04/25 08:18:17;;;;;;;8.03;6.37;;;;;;;18.01;62.88;98551.59;1657778;86;21700;-68
2022/04/25 08:20:48;;;;;;;10.80;6.37;;;;;;;18.02;62.64;98536.53;1653045;86;21008;-69
2022/04/25 08:23:18;;;;;;;17.60;7.10;;;;;;;18.11;62.68;98527.25;1663220;85;21178;-69
2022/04/25 08:25:45;;;;;;;9.55;6.15;;;;;;;18.34;62.46;98527.53;1658907;86;21533;-69
2022/04/25 08:28:14;;;;;;;15.35;6.65;;;;;;;18.57;62.35;98534.92;1660201;84;20968;-68
2022/04/25 08:30:45;;;;;;;16.90;7.20;;;;;;;18.78;60.86;98539.17;1657218;84;21197;-68
2022/04/25 08:33:13;;;;;;;8.35;6.17;;;;;;;18.89;60.06;98537.00;1651856;86;21106;-68
2022/04/25 08:35:49;;;;;;;12.23;7.30;;;;;;;18.86;59.68;98526.08;1658401;86;21044;-71
2022/04/25 08:38:21;;;;;;;11.93;6.58;;;;;;;18.84;59.89;98526.27;1663346;84;21494;-71
2022/04/25 08:40:55;;;;;;;11.78;7.47;;;;;;;18.84;59.66;98524.28;1659479;86;21113;-71
2022/04/25 08:43:25;;;;;;;10.80;7.35;;;;;;;18.88;59.61;98526.48;1633710;86;21597;-74
2022/04/25 08:45:59;;;;;;;17.23;7.05;;;;;;;18.88;60.07;98532.04;1632464;86;21039;-67
2022/04/25 08:48:28;;;;;;;11.83;7.12;;;;;;;18.85;60.10;98526.47;1642744;86;21101;-67
2022/04/25 08:50:54;;;;;;;13.15;7.10;;;;;;;18.83;59.64;98528.26;1662001;86;21063;-69
2022/04/25 08:53:28;;;;;;;10.70;6.53;;;;;;;18.87;60.36;98537.40;1634636;86;20966;-74
2022/04/25 08:55:58;;;;;;;13.08;6.55;;;;;;;18.96;59.88;98530.06;1662060;86;20956;-66
2022/04/25 08:58:31;;;;;;;12.37;6.65;;;;;;;19.11;59.58;98528.85;1634329;87;21299;-66
2022/04/25 09:01:03;;;;;;;8.75;6.15;;;;;;;19.31;59.69;98524.48;1607255;87;21184;-68
2022/04/25 09:03:31;;;;;;;15.93;6.83;;;;;;;19.64;59.05;98532.99;1654526;86;20987;-73
2022/04/25 09:06:03;;;;;;;12.55;6.53;;;;;;;19.97;58.73;98533.72;1664641;84;21036;-73
2022/04/25 09:08:36;;;;;;;12.65;7.42;;;;;;;20.17;57.06;98541.80;1636383;84;21110;-70
2022/04/25 09:13:52;;;;;;;11.48;6.35;;;;;;;20.11;56.51;98535.06;1619566;87;21294;-68
2022/04/25 09:16:25;;;;;;;13.15;7.12;;;;;;;20.26;57.11;98538.56;1622654;87;21515;-68
2022/04/25 09:19:01;;;;;;;10.68;6.62;;;;;;;20.37;56.37;98545.67;1625327;87;21047;-67
2022/04/25 09:21:30;;;;;;;10.60;6.08;;;;;;;20.30;55.32;98548.50;1620758;87;21024;-67
2022/04/25 09:24:02;;;;;;;12.15;7.62;;;;;;;20.12;56.11;98547.80;1622297;87;21562;-68
2022/04/25 09:26:39;;;;;;;9.85;6.80;;;;;;;19.85;56.55;98546.67;1610014;87;21634;-72
2022/04/25 09:29:16;;;;;;;16.27;6.37;;;;;;;19.49;57.58;98552.89;1605674;87;21035;-70
2022/04/25 09:31:54;;;;;;;13.10;6.67;;;;;;;19.19;58.50;98550.52;1605048;87;20940;-68
2022/04/25 09:37:11;;;;;;;14.43;7.50;;;;;;;18.86;59.88;98551.10;1630515;87;21589;-67
2022/04/25 09:39:39;;;;;;;11.25;7.05;;;;;;;18.70;60.16;98540.94;1649701;85;21068;-66
2022/04/25 09:42:18;;;;;;;12.28;7.47;;;;;;;18.60;60.96;98548.62;1638640;85;21028;-67
2022/04/25 09:45:01;;;;;;;14.63;7.08;;;;;;;18.55;60.48;98535.91;1622394;86;21561;-68
2022/04/25 09:47:40;;;;;;;12.25;6.70;;;;;;;18.59;60.85;98527.58;1648383;86;21134;-71
2022/04/25 09:50:13;;;;;;;14.80;8.28;;;;;;;18.80;61.39;98536.80;1626746;86;21110;-70
2022/04/25 09:52:59;;;;;;;16.37;8.48;;;;;;;19.22;60.07;98520.51;1616244;86;21300;-68
2022/04/25 09:55:28;;;;;;;14.55;8.03;;;;;;;19.67;58.90;98511.31;1605792;86;21084;-68
2022/04/25 09:57:59;;;;;;;11.18;6.28;;;;;;;20.19;57.06;98503.79;1640837;86;21017;-69
2022/04/25 10:00:39;;;;;;;14.70;7.42;;;;;;;20.68;56.57;98496.55;1608266;86;21024;-69
2022/04/25 10:03:09;;;;;;;12.37;6.80;;;;;;;21.13;53.79;98505.56;1627494;87;21055;-69
2022/04/25 10:05:46;;;;;;;13.20;7.50;;;;;;;21.18;53.25;98498.16;1614465;87;20980;-70
2022/04/25 10:08:18;;;;;;;12.88;7.85;;;;;;;20.97;52.92;98502.70;1606335;85;21519;-69
2022/04/25 10:10:51;;;;;;;11.22;7.65;;;;;;;20.58;53.65;98503.59;1635173;86;21054;-68
2022/04/25 10:13:20;;;;;;;13.05;7.60;;;;;;;20.19;54.82;98500.41;1626903;85;21039;-68
2022/04/25 10:15:52;;;;;;;12.47;6.75;;;;;;;19.97;55.84;98505.86;1633441;86;21193;-68
2022/04/25 10:18:22;;;;;;;12.82;7.22;;;;;;;19.94;57.26;98502.48;1628353;86;22315;-69
2022/04/25 10:20:53;;;;;;;12.13;6.92;;;;;;;20.07;57.06;98505.03;1647466;86;21079;-67
2022/04/25 10:23:26;;;;;;;16.23;7.50;;;;;;;20.12;56.40;98494.86;1631203;86;21076;-68
2022/04/25 10:26:01;;;;;;;9.98;6.10;;;;;;;20.13;56.52;98515.16;1578237;89;21593;-66
2022/04/25 10:28:48;;;;;;;16.05;7.30;;;;;;;20.04;56.54;98509.42;1640195;86;21066;-68
2022/04/25 10:31:26;;;;;;;13.20;6.58;;;;;;;19.92;56.48;98516.02;1620210;85;20977;-69
2022/04/25 10:33:58;;;;;;;11.63;5.92;;;;;;;19.89;57.36;98517.63;1618674;86;21131;-66
2022/04/25 10:36:46;;;;;;;14.43;5.72;;;;;;;19.94;56.65;98515.02;1661749;85;20920;-68
2022/04/25 10:39:31;;;;;;;13.98;5.53;;;;;;;19.99;56.27;98510.43;1612054;88;21558;-69
2022/04/25 10:44:51;;;;;;;11.30;3.08;;;;;;;20.09;54.67;98508.20;1656988;84;21277;-67
2022/04/25 10:47:25;;;;;;;14.25;3.10;;;;;;;20.49;50.79;98519.97;1657881;85;21083;-68
2022/04/25 10:49:59;;;;;;;11.12;3.12;;;;;;;20.96;48.04;98520.64;1649698;86;21047;-70
2022/04/25 10:52:42;;;;;;;14.10;3.58;;;;;;;21.20;45.27;98520.86;1658566;86;21161;-68
2022/04/25 10:55:20;;;;;;;16.85;3.30;;;;;;;21.29;44.46;98521.21;1632791;87;21548;-72
2022/04/25 10:58:08;;;;;;;14.80;3.35;;;;;;;21.44;43.90;98519.85;1654439;85;21158;-70
2022/04/25 11:00:44;;;;;;;7.80;2.98;;;;;;;21.62;44.63;98528.06;1641146;86;21059;-71
2022/04/25 11:03:19;;;;;;;8.50;2.83;;;;;;;21.63;44.94;98527.65;1624799;86;21015;-67
2022/04/25 11:05:49;;;;;;;9.55;3.15;;;;;;;21.58;44.48;98529.48;1601450;88;21011;-68
2022/04/25 11:08:23;;;;;;;7.53;3.02;;;;;;;21.45;43.30;98527.02;1614863;87;22148;-69
2022/04/25 11:11:09;;;;;;;8.38;2.80;;;;;;;21.27;44.34;98535.58;1649928;85;21289;-67
2022/04/25 11:14:01;;;;;;;8.93;2.90;;;;;;;21.14;42.99;98533.66;1602120;86;21587;-67
2022/04/25 11:16:26;;;;;;;7.25;2.87;;;;;;;20.99;43.38;98526.80;1634880;84;21107;-71
2022/04/25 11:19:17;;;;;;;15.48;4.10;;;;;;;20.95;44.36;98529.42;1645129;86;21557;-73
2022/04/25 11:21:49;;;;;;;13.40;3.90;;;;;;;21.01;45.78;98530.57;1637723;86;21067;-70
2022/04/25 11:24:37;;;;;;;13.43;4.30;;;;;;;21.13;46.59;98521.70;1609579;88;21842;-71
2022/04/25 11:27:11;;;;;;;11.22;3.50;;;;;;;21.30;45.25;98519.41;1662319;85;21054;-68
2022/04/25 11:29:40;;;;;;;20.25;3.98;;;;;;;21.24;45.36;98516.08;1656127;86;21076;-68
2022/04/25 11:32:35;;;;;;;9.48;3.10;;;;;;;21.14;45.16;98502.36;1660522;86;21247;-72
2022/04/25 11:35:00;;;;;;;16.32;3.75;;;;;;;21.10;45.39;98509.38;1657111;85;21091;-73
2022/04/25 11:37:32;;;;;;;11.38;3.67;;;;;;;21.12;45.53;98501.19;1657556;86;21019;-72
2022/04/25 11:40:09;;;;;;;;;;;;;;;21.06;46.32;98512.00;1659678;85;21369;-68
2022/04/25 11:42:36;;;;;;;;;;;;;;;20.89;46.98;98508.73;1661899;84;20429;-69
2022/04/25 11:45:05;;;;;;;;;;;;;;;20.78;47.99;98510.23;1661352;85;20116;-70
2022/04/25 11:47:33;;;;;;;;;;;;;;;20.59;48.51;98519.12;1663158;84;20182;-70
2022/04/25 11:50:03;;;;;;;;;;;;;;;20.37;48.51;98526.77;1659853;84;21172;-71
2022/04/25 11:52:30;;;;;;;;;;;;;;;20.21;48.84;98523.08;1665399;85;21256;-69
2022/04/25 11:54:59;;;;;;;;;;;;;;;20.16;49.72;98516.53;1663118;84;20101;-68
2022/04/25 11:57:27;;;;;;;;;;;;;;;20.15;49.27;98512.16;1633599;86;20178;-68
2022/04/25 12:00:17;;;;;;;;;;;;;;;20.14;47.69;98509.18;1624113;87;20176;-68
2022/04/25 12:02:45;;;;;;;;;;;;;;;20.23;48.51;98500.36;1624474;87;21746;-68
2022/04/25 12:05:31;;;;;;;;;;;;;;;20.41;48.72;98510.84;1606707;88;20141;-68
2022/04/25 12:16:27;;;;;;;;;;;;;;;20.41;48.36;98508.86;1606496;89;20120;-68
2022/04/25 12:19:01;;;;;;;;;;;;;;;20.38;47.86;98512.45;1628170;86;20139;-68
2022/04/25 12:21:25;;;;;;;;;;;;;;;20.34;48.06;98502.49;1642138;86;20165;-69
2022/04/25 12:23:59;;;;;;;;;;;;;;;20.37;48.41;98506.66;1565784;88;20137;-68
2022/04/25 12:26:29;;;;;;;;;;;;;;;20.31;47.75;98505.48;1623733;87;20157;-70
2022/04/25 12:29:01;;;;;;;;;;;;;;;20.22;47.70;98507.16;1591031;88;21188;-70
2022/04/25 12:31:37;;;;;;;;;;;;;;;20.14;47.53;98504.20;1611363;88;20178;-69
2022/04/25 12:34:12;;;;;;;;;;;;;;;20.04;47.97;98502.45;1590740;88;20133;-69
2022/04/25 12:36:39;;;;;;;;;;;;;;;19.97;48.61;98508.05;1648285;85;20169;-69
2022/04/25 12:39:14;;;;;;;;;;;;;;;19.90;47.89;98501.11;1632847;86;20101;-69
2022/04/25 12:41:41;;;;;;;;;;;;;;;19.80;47.22;98497.76;1661078;85;21142;-69
2022/04/25 12:44:13;;;;;;;;;;;;;;;19.75;47.83;98492.60;1660545;86;20078;-70